createdAt,value
2019-04-06T00:02:24.617Z,3.70
2019-04-06T00:05:13.292Z,3.60
2019-04-06T00:08:01.031Z,3.50
2019-04-06T00:10:49.371Z,3.40
2019-04-06T00:13:37.354Z,3.30
2019-04-06T00:16:25.277Z,3.20
2019-04-06T00:19:13.189Z,3.20
2019-04-06T00:22:01.139Z,3.20
2019-04-06T00:24:49.145Z,3.10
2019-04-06T00:27:36.605Z,3.00
2019-04-06T00:30:24.100Z,2.90
2019-04-06T00:33:14.334Z,2.80
2019-04-06T00:36:02.399Z,2.80
2019-04-06T00:38:50.200Z,2.80
2019-04-06T00:41:37.947Z,2.80
2019-04-06T00:44:25.171Z,2.80
2019-04-06T00:47:12.827Z,2.80
2019-04-06T00:50:00.832Z,2.80
2019-04-06T00:52:48.934Z,2.70
2019-04-06T00:55:36.577Z,2.70
2019-04-06T00:58:24.297Z,2.60
2019-04-06T01:01:12.085Z,2.60
2019-04-06T01:03:59.665Z,2.60
2019-04-06T01:06:47.632Z,2.50
2019-04-06T01:09:35.426Z,2.40
2019-04-06T01:12:23.284Z,2.40
2019-04-06T01:15:11.793Z,2.40
2019-04-06T01:17:59.257Z,2.30
2019-04-06T01:20:46.977Z,2.30
2019-04-06T01:23:35.025Z,2.30
2019-04-06T01:26:22.618Z,2.20
2019-04-06T01:29:10.537Z,2.10
2019-04-06T01:31:57.972Z,2.10
2019-04-06T01:34:45.829Z,2.10
2019-04-06T01:37:33.282Z,2.10
2019-04-06T01:40:21.797Z,2.20
2019-04-06T01:43:09.595Z,2.00
2019-04-06T01:45:57.529Z,2.00
2019-04-06T01:48:45.317Z,2.10
2019-04-06T01:51:33.165Z,2.00
2019-04-06T01:54:20.723Z,1.90
2019-04-06T01:57:08.237Z,1.80
2019-04-06T01:59:56.451Z,1.80
2019-04-06T02:02:46.986Z,1.90
2019-04-06T02:05:35.005Z,1.90
2019-04-06T02:08:22.645Z,1.90
2019-04-06T02:11:10.636Z,1.90
2019-04-06T02:13:58.054Z,1.80
2019-04-06T02:16:45.761Z,1.70
2019-04-06T02:19:33.681Z,1.70
2019-04-06T02:22:21.709Z,1.80
2019-04-06T02:25:09.721Z,1.70
2019-04-06T02:27:57.516Z,1.80
2019-04-06T02:31:04.787Z,1.70
2019-04-06T02:34:26.961Z,1.70
2019-04-06T02:37:23.787Z,1.80
2019-04-06T02:40:37.870Z,1.90
2019-04-06T02:43:28.484Z,1.80
2019-04-06T02:46:15.865Z,1.90
2019-04-06T02:49:03.865Z,2.00
2019-04-06T02:51:51.681Z,2.10
2019-04-06T02:54:39.137Z,2.10
2019-04-06T02:57:27.067Z,2.20
2019-04-06T03:00:14.741Z,2.20
2019-04-06T03:03:02.677Z,2.20
2019-04-06T03:05:50.788Z,2.10
2019-04-06T03:08:38.393Z,1.90
2019-04-06T03:11:25.960Z,1.80
2019-04-06T03:14:13.404Z,1.70
2019-04-06T03:17:00.946Z,1.70
2019-04-06T03:19:48.894Z,1.70
2019-04-06T03:22:36.804Z,1.60
2019-04-06T03:25:24.558Z,1.50
2019-04-06T03:28:13.096Z,1.40
2019-04-06T03:31:01.213Z,1.20
2019-04-06T03:33:49.390Z,1.10
2019-04-06T03:36:37.846Z,1.10
2019-04-06T03:39:25.754Z,1.00
2019-04-06T03:42:13.758Z,1.00
2019-04-06T03:45:01.696Z,1.00
2019-04-06T03:47:49.628Z,0.90
2019-04-06T03:50:37.140Z,0.90
2019-04-06T03:53:24.803Z,0.80
2019-04-06T03:56:12.697Z,0.80
2019-04-06T03:59:00.910Z,0.80
2019-04-06T04:01:48.870Z,0.80
2019-04-06T04:04:36.566Z,0.80
2019-04-06T04:07:24.586Z,0.80
2019-04-06T04:10:21.740Z,0.70
2019-04-06T04:13:09.550Z,0.70
2019-04-06T04:15:57.963Z,0.70
2019-04-06T04:18:45.693Z,0.70
2019-04-06T04:21:33.267Z,0.70
2019-04-06T04:24:21.731Z,0.70
2019-04-06T04:27:09.360Z,0.70
2019-04-06T04:29:56.977Z,0.60
2019-04-06T04:32:44.542Z,0.60
2019-04-06T04:35:31.868Z,0.60
2019-04-06T04:38:19.524Z,0.50
2019-04-06T04:41:07.623Z,0.50
2019-04-06T04:43:54.932Z,0.40
2019-04-06T04:46:42.847Z,0.40
2019-04-06T04:49:30.227Z,0.40
2019-04-06T04:52:18.254Z,0.40
2019-04-06T04:55:06.155Z,0.40
2019-04-06T04:57:53.662Z,0.30
2019-04-06T05:00:41.374Z,0.40
2019-04-06T05:03:29.350Z,0.30
2019-04-06T05:06:17.228Z,0.30
2019-04-06T05:09:07.071Z,0.40
2019-04-06T05:11:54.916Z,0.40
2019-04-06T05:14:59.206Z,0.30
2019-04-06T05:17:47.220Z,0.40
2019-04-06T05:20:34.911Z,0.40
2019-04-06T05:23:22.753Z,0.50
2019-04-06T05:26:10.225Z,0.60
2019-04-06T05:28:57.750Z,0.60
2019-04-06T05:31:45.853Z,0.60
2019-04-06T05:34:33.690Z,0.70
2019-04-06T05:37:21.672Z,0.70
2019-04-06T05:40:09.399Z,0.70
2019-04-06T05:42:57.708Z,0.70
2019-04-06T05:45:45.434Z,0.70
2019-04-06T05:48:33.364Z,0.80
2019-04-06T05:51:21.262Z,0.90
2019-04-06T05:54:09.354Z,1.00
2019-04-06T05:56:57.265Z,1.00
2019-04-06T05:59:45.196Z,1.10
2019-04-06T06:02:33.092Z,1.20
2019-04-06T06:05:21.318Z,1.20
2019-04-06T06:08:08.930Z,1.30
2019-04-06T06:10:56.766Z,1.50
2019-04-06T06:13:44.723Z,1.60
2019-04-06T06:16:32.560Z,1.80
2019-04-06T06:19:19.955Z,1.90
2019-04-06T06:22:07.708Z,1.90
2019-04-06T06:24:55.222Z,2.00
2019-04-06T06:27:42.848Z,2.00
2019-04-06T06:30:30.910Z,1.90
2019-04-06T06:33:19.138Z,2.20
2019-04-06T06:36:06.900Z,2.20
2019-04-06T06:38:54.562Z,2.50
2019-04-06T06:41:42.178Z,2.60
2019-04-06T06:44:29.818Z,2.80
2019-04-06T06:47:17.748Z,3.00
2019-04-06T06:50:06.806Z,3.20
2019-04-06T06:52:54.118Z,3.40
2019-04-06T06:55:41.977Z,3.60
2019-04-06T06:58:30.362Z,3.80
2019-04-06T07:01:18.586Z,4.00
2019-04-06T07:04:06.548Z,4.30
2019-04-06T07:06:54.143Z,4.40
2019-04-06T07:09:42.218Z,4.60
2019-04-06T07:12:30.005Z,4.60
2019-04-06T07:15:18.012Z,4.80
2019-04-06T07:18:06.511Z,5.00
2019-04-06T07:20:54.168Z,5.00
2019-04-06T07:23:41.921Z,5.20
2019-04-06T07:26:29.705Z,5.40
2019-04-06T07:29:17.749Z,5.50
2019-04-06T07:32:05.839Z,5.70
2019-04-06T07:34:53.162Z,5.90
2019-04-06T07:37:41.004Z,6.00
2019-04-06T07:40:28.879Z,6.30
2019-04-06T07:43:17.168Z,6.60
2019-04-06T07:46:05.252Z,6.70
2019-04-06T07:48:53.265Z,7.00
2019-04-06T07:51:40.897Z,7.20
2019-04-06T07:54:28.279Z,7.30
2019-04-06T07:57:15.715Z,7.60
2019-04-06T08:00:04.368Z,7.70
2019-04-06T08:02:52.377Z,8.00
2019-04-06T08:05:40.028Z,8.20
2019-04-06T08:08:28.991Z,8.30
2019-04-06T08:11:16.901Z,8.40
2019-04-06T08:14:04.441Z,8.50
2019-04-06T08:16:52.297Z,8.60
2019-04-06T08:19:40.088Z,8.80
2019-04-06T08:22:27.866Z,8.70
2019-04-06T08:25:15.939Z,8.90
2019-04-06T08:28:03.536Z,8.90
2019-04-06T08:30:51.405Z,8.80
2019-04-06T08:33:39.311Z,8.90
2019-04-06T08:36:26.990Z,8.90
2019-04-06T08:39:16.905Z,9.10
2019-04-06T08:42:05.097Z,9.30
2019-04-06T08:44:52.950Z,9.50
2019-04-06T08:47:40.572Z,9.60
2019-04-06T08:50:27.967Z,9.80
2019-04-06T08:53:15.290Z,10.10
2019-04-06T08:56:03.107Z,10.30
2019-04-06T08:58:51.169Z,10.50
2019-04-06T09:01:40.079Z,10.50
2019-04-06T09:04:27.682Z,10.70
2019-04-06T09:07:15.919Z,11.00
2019-04-06T09:10:04.219Z,11.20
2019-04-06T09:12:52.163Z,10.90
2019-04-06T09:15:39.925Z,11.20
2019-04-06T09:18:28.811Z,11.20
2019-04-06T09:21:16.856Z,11.10
2019-04-06T09:24:04.457Z,11.30
2019-04-06T09:26:52.611Z,11.60
2019-04-06T09:29:40.526Z,11.40
2019-04-06T09:32:28.640Z,11.40
2019-04-06T09:35:16.124Z,11.80
2019-04-06T09:38:04.324Z,12.00
2019-04-06T09:40:51.933Z,12.40
2019-04-06T09:43:40.117Z,12.40
2019-04-06T09:46:53.773Z,12.70
2019-04-06T09:49:52.489Z,12.80
2019-04-06T09:53:02.713Z,13.00
2019-04-06T09:55:59.608Z,12.90
2019-04-06T09:58:57.588Z,12.90
2019-04-06T10:02:02.989Z,13.00
2019-04-06T10:05:01.654Z,13.20
2019-04-06T10:08:07.659Z,13.30
2019-04-06T10:11:13.782Z,13.50
2019-04-06T10:14:27.835Z,13.60
2019-04-06T10:17:34.329Z,13.80
2019-04-06T10:20:30.053Z,14.00
2019-04-06T10:23:32.243Z,14.00
2019-04-06T10:26:38.630Z,13.60
2019-04-06T10:29:50.099Z,13.60
2019-04-06T10:32:56.615Z,13.60
2019-04-06T10:36:16.085Z,13.50
2019-04-06T10:39:33.449Z,13.40
2019-04-06T10:42:39.008Z,13.60
2019-04-06T10:45:37.364Z,13.80
2019-04-06T10:48:45.190Z,14.00
2019-04-06T10:51:51.156Z,13.90
2019-04-06T10:54:55.679Z,13.90
2019-04-06T10:57:50.352Z,14.10
2019-04-06T11:00:56.012Z,14.10
2019-04-06T11:04:02.580Z,14.20
2019-04-06T11:07:21.588Z,14.20
2019-04-06T11:10:28.708Z,14.50
2019-04-06T11:13:34.404Z,14.90
2019-04-06T11:16:30.573Z,15.00
2019-04-06T11:19:30.755Z,14.70
2019-04-06T11:22:38.045Z,14.80
2019-04-06T11:25:47.936Z,14.70
2019-04-06T11:28:45.241Z,14.60
2019-04-06T11:31:58.101Z,14.70
2019-04-06T11:35:04.855Z,14.50
2019-04-06T11:38:10.068Z,14.70
2019-04-06T11:41:22.907Z,15.00
2019-04-06T11:44:17.540Z,15.30
2019-04-06T11:47:42.860Z,15.30
2019-04-06T11:50:46.124Z,15.10
2019-04-06T11:53:59.264Z,15.10
2019-04-06T11:56:55.465Z,15.10
2019-04-06T12:00:24.689Z,15.10
2019-04-06T12:03:14.411Z,15.20
2019-04-06T12:06:10.261Z,15.20
2019-04-06T12:09:15.290Z,15.30
2019-04-06T12:12:22.016Z,15.30
2019-04-06T12:15:34.891Z,15.60
2019-04-06T12:18:27.260Z,15.80
2019-04-06T12:21:24.176Z,16.00
2019-04-06T12:24:30.112Z,16.10
2019-04-06T12:27:38.065Z,15.80
2019-04-06T12:30:47.899Z,16.10
2019-04-06T12:33:55.038Z,16.20
2019-04-06T12:37:01.507Z,15.90
2019-04-06T12:40:14.268Z,16.10
2019-04-06T12:43:21.414Z,16.20
2019-04-06T12:46:28.394Z,16.30
2019-04-06T12:49:30.320Z,16.30
2019-04-06T12:52:31.199Z,16.00
2019-04-06T12:55:43.972Z,15.90
2019-04-06T12:58:46.441Z,15.90
2019-04-06T13:02:11.397Z,16.00
2019-04-06T13:05:20.700Z,16.20
2019-04-06T13:08:33.374Z,16.30
2019-04-06T13:11:43.581Z,16.20
2019-04-06T13:14:53.565Z,16.30
2019-04-06T13:17:53.349Z,16.30
2019-04-06T13:21:18.404Z,16.50
2019-04-06T13:24:25.275Z,16.50
2019-04-06T13:27:25.735Z,16.40
2019-04-06T13:30:31.326Z,16.30
2019-04-06T13:33:44.799Z,16.60
2019-04-06T13:36:50.260Z,16.60
2019-04-06T13:39:50.168Z,16.60
2019-04-06T13:42:54.574Z,16.60
2019-04-06T13:46:10.680Z,16.70
2019-04-06T13:49:14.797Z,16.60
2019-04-06T13:52:21.743Z,16.90
2019-04-06T13:55:31.155Z,17.10
2019-04-06T13:58:44.828Z,16.80
2019-04-06T14:01:50.013Z,16.80
2019-04-06T14:04:44.281Z,16.80
2019-04-06T14:07:50.993Z,16.90
2019-04-06T14:11:13.082Z,16.80
2019-04-06T14:14:19.271Z,16.90
2019-04-06T14:17:22.620Z,16.90
2019-04-06T14:20:27.159Z,16.80
2019-04-06T14:23:22.680Z,16.80
2019-04-06T14:26:20.067Z,16.90
2019-04-06T14:29:24.398Z,17.00
2019-04-06T14:32:30.083Z,16.70
2019-04-06T14:35:35.837Z,16.90
2019-04-06T14:38:45.460Z,16.80
2019-04-06T14:41:51.299Z,16.60
2019-04-06T14:44:48.255Z,16.60
2019-04-06T14:47:59.041Z,16.40
2019-04-06T14:51:08.874Z,16.60
2019-04-06T14:54:11.464Z,16.50
2019-04-06T14:57:06.949Z,16.70
2019-04-06T15:00:16.592Z,16.70
2019-04-06T15:03:12.595Z,16.70
2019-04-06T15:06:18.114Z,16.80
2019-04-06T15:09:26.080Z,16.70
2019-04-06T15:12:35.889Z,16.30
2019-04-06T15:15:45.099Z,16.10
2019-04-06T15:18:51.128Z,16.10
2019-04-06T15:22:01.754Z,16.00
2019-04-06T15:25:11.486Z,16.10
2019-04-06T15:28:13.356Z,16.00
2019-04-06T15:31:07.068Z,15.80
2019-04-06T15:34:10.749Z,15.90
2019-04-06T15:37:11.420Z,16.00
2019-04-06T15:40:08.653Z,16.00
2019-04-06T15:43:19.435Z,16.30
2019-04-06T15:46:19.116Z,16.40
2019-04-06T15:49:15.922Z,16.40
2019-04-06T15:52:21.715Z,16.20
2019-04-06T15:55:34.463Z,16.20
2019-04-06T15:58:30.589Z,16.40
2019-04-06T16:01:30.622Z,16.20
2019-04-06T16:04:23.673Z,16.30
2019-04-06T16:07:33.246Z,16.20
2019-04-06T16:10:27.206Z,16.30
2019-04-06T16:13:31.119Z,16.30
2019-04-06T16:16:24.105Z,16.30
2019-04-06T16:19:24.558Z,16.50
2019-04-06T16:22:37.699Z,16.30
2019-04-06T16:25:57.057Z,16.30
2019-04-06T16:29:03.368Z,16.40
2019-04-06T16:32:12.293Z,16.20
2019-04-06T16:35:04.414Z,16.30
2019-04-06T16:38:26.874Z,16.20
2019-04-06T16:41:51.726Z,16.20
2019-04-06T16:44:44.126Z,16.30
2019-04-06T16:47:43.474Z,16.30
2019-04-06T16:50:49.557Z,16.10
2019-04-06T16:54:14.700Z,16.00
2019-04-06T16:57:21.977Z,16.20
2019-04-06T17:00:26.513Z,16.50
2019-04-06T17:03:22.444Z,16.80
2019-04-06T17:06:28.295Z,17.20
2019-04-06T17:09:34.427Z,17.70
2019-04-06T17:12:55.842Z,17.90
2019-04-06T17:16:10.017Z,18.40
2019-04-06T17:19:14.989Z,18.30
2019-04-06T17:22:19.202Z,18.10
2019-04-06T17:25:19.843Z,18.20
2019-04-06T17:28:27.514Z,18.10
2019-04-06T17:31:27.413Z,17.70
2019-04-06T17:34:34.058Z,17.30
2019-04-06T17:37:30.112Z,16.90
2019-04-06T17:40:25.399Z,16.30
2019-04-06T17:43:20.360Z,15.70
2019-04-06T17:46:15.455Z,15.20
2019-04-06T17:49:23.526Z,14.80
2019-04-06T17:52:38.498Z,14.50
2019-04-06T17:55:51.097Z,14.40
2019-04-06T17:59:00.994Z,14.30
2019-04-06T18:02:07.050Z,14.10
2019-04-06T18:05:06.306Z,14.00
2019-04-06T18:08:15.849Z,13.80
2019-04-06T18:11:25.843Z,13.80
2019-04-06T18:14:13.871Z,13.70
2019-04-06T18:17:01.891Z,13.60
2019-04-06T18:19:49.826Z,13.50
2019-04-06T18:22:37.894Z,13.40
2019-04-06T18:25:25.741Z,13.30
2019-04-06T18:28:14.964Z,13.30
2019-04-06T18:31:11.880Z,13.20
2019-04-06T18:33:59.572Z,13.10
2019-04-06T18:36:56.777Z,13.00
2019-04-06T18:39:44.202Z,12.90
2019-04-06T18:42:32.451Z,12.80
2019-04-06T18:45:20.896Z,12.70
2019-04-06T18:48:09.014Z,12.60
2019-04-06T18:50:56.750Z,12.60
2019-04-06T18:53:44.689Z,12.50
2019-04-06T18:56:32.676Z,12.40
2019-04-06T18:59:20.638Z,12.40
2019-04-06T19:02:08.842Z,12.30
2019-04-06T19:04:57.036Z,12.30
2019-04-06T19:07:44.624Z,12.20
2019-04-06T19:10:32.560Z,12.20
2019-04-06T19:13:20.559Z,12.00
2019-04-06T19:16:08.548Z,11.90
2019-04-06T19:18:56.151Z,11.90
2019-04-06T19:21:43.914Z,11.80
2019-04-06T19:24:32.718Z,11.80
2019-04-06T19:27:20.546Z,11.70
2019-04-06T19:30:09.995Z,11.70
2019-04-06T19:32:57.732Z,11.60
2019-04-06T19:35:45.491Z,11.60
2019-04-06T19:38:34.048Z,11.50
2019-04-06T19:41:22.424Z,11.50
2019-04-06T19:44:10.516Z,11.40
2019-04-06T19:46:58.595Z,11.40
2019-04-06T19:49:46.662Z,11.30
2019-04-06T19:52:34.788Z,11.30
2019-04-06T19:55:22.968Z,11.20
2019-04-06T19:58:10.817Z,11.20
2019-04-06T20:00:58.686Z,11.10
2019-04-06T20:03:46.549Z,11.10
2019-04-06T20:06:34.603Z,11.10
2019-04-06T20:09:23.229Z,11.00
2019-04-06T20:12:11.559Z,11.00
2019-04-06T20:14:59.573Z,10.90
2019-04-06T20:17:47.488Z,10.90
2019-04-06T20:20:35.278Z,10.90
2019-04-06T20:23:23.374Z,10.90
2019-04-06T20:26:10.733Z,10.80
2019-04-06T20:28:58.259Z,10.70
2019-04-06T20:31:46.348Z,10.60
2019-04-06T20:34:34.529Z,10.60
2019-04-06T20:37:22.450Z,10.50
2019-04-06T20:40:10.921Z,10.50
2019-04-06T20:42:58.420Z,10.50
2019-04-06T20:45:46.821Z,10.40
2019-04-06T20:48:34.683Z,10.40
2019-04-06T20:51:22.588Z,10.40
2019-04-06T20:54:10.078Z,10.40
2019-04-06T20:56:58.944Z,10.30
2019-04-06T20:59:47.017Z,10.30
2019-04-06T21:02:35.043Z,10.30
2019-04-06T21:05:23.165Z,10.20
2019-04-06T21:08:10.990Z,10.10
2019-04-06T21:10:58.936Z,10.10
2019-04-06T21:13:47.039Z,10.00
2019-04-06T21:16:34.681Z,10.00
2019-04-06T21:19:22.540Z,10.00
2019-04-06T21:22:10.727Z,9.90
2019-04-06T21:24:58.409Z,9.90
2019-04-06T21:27:46.486Z,9.70
2019-04-06T21:30:34.269Z,9.60
2019-04-06T21:33:22.125Z,9.40
2019-04-06T21:36:10.685Z,9.30
2019-04-06T21:38:58.751Z,9.20
2019-04-06T21:41:47.375Z,9.10
2019-04-06T21:44:35.961Z,9.00
2019-04-06T21:47:24.070Z,8.90
2019-04-06T21:50:12.620Z,8.80
2019-04-06T21:53:00.277Z,8.60
2019-04-06T21:55:48.330Z,8.60
2019-04-06T21:58:35.896Z,8.50
2019-04-06T22:01:24.301Z,8.30
2019-04-06T22:04:23.074Z,8.10
2019-04-06T22:07:02.039Z,7.90
2019-04-06T22:09:49.584Z,7.80
2019-04-06T22:12:37.827Z,7.80
2019-04-06T22:15:25.889Z,7.70
2019-04-06T22:18:13.609Z,7.70
2019-04-06T22:21:02.189Z,7.60
2019-04-06T22:23:50.689Z,7.50
2019-04-06T22:26:39.366Z,7.30
2019-04-06T22:29:27.567Z,7.30
2019-04-06T22:32:16.459Z,7.30
2019-04-06T22:35:05.849Z,7.20
2019-04-06T22:37:55.325Z,7.10
2019-04-06T22:40:43.553Z,7.00
2019-04-06T22:43:31.821Z,6.90
2019-04-06T22:46:20.234Z,6.80
2019-04-06T22:49:11.202Z,6.80
2019-04-06T22:51:59.417Z,6.60
2019-04-06T22:54:47.890Z,6.50
2019-04-06T22:57:36.186Z,6.60
2019-04-06T23:00:46.442Z,6.70
2019-04-06T23:03:53.282Z,6.60
2019-04-06T23:07:03.169Z,6.50
2019-04-06T23:09:51.208Z,6.50
2019-04-06T23:12:39.431Z,6.40
2019-04-06T23:15:27.753Z,6.30
2019-04-06T23:18:15.291Z,6.30
2019-04-06T23:21:03.018Z,6.20
2019-04-06T23:23:51.120Z,6.10
2019-04-06T23:26:39.760Z,6.10
2019-04-06T23:29:27.977Z,5.90
2019-04-06T23:32:15.997Z,5.90
2019-04-06T23:35:04.579Z,5.80
2019-04-06T23:37:52.621Z,5.90
2019-04-06T23:40:40.571Z,5.80
2019-04-06T23:43:28.078Z,5.80
2019-04-06T23:46:15.418Z,5.70
2019-04-06T23:49:02.838Z,5.60
2019-04-06T23:51:50.834Z,5.80
2019-04-06T23:54:38.503Z,5.60
2019-04-06T23:57:26.595Z,5.60
